createdAt,value
2023-04-22T04:13:21.973Z,100422.50
2023-04-22T04:16:24.516Z,100420.56
2023-04-22T04:19:27.123Z,100427.28
2023-04-22T04:22:29.632Z,100422.22
2023-04-22T04:25:37.772Z,100430.16
2023-04-22T04:28:41.845Z,100428.03
2023-04-22T04:31:44.381Z,100431.38
2023-04-22T04:34:46.939Z,100431.44
2023-04-22T04:37:50.802Z,100425.63
2023-04-22T04:40:53.797Z,100433.91
2023-04-22T04:44:00.576Z,100441.69
2023-04-22T04:47:04.111Z,100433.06
2023-04-22T04:50:07.755Z,100441.59
2023-04-22T04:53:10.394Z,100437.31
2023-04-22T04:56:12.992Z,100431.69
2023-04-22T04:59:17.346Z,100436.22
2023-04-22T05:02:20.038Z,100439.34
2023-04-22T05:05:22.752Z,100436.25
2023-04-22T05:08:25.285Z,100447.34
2023-04-22T05:11:27.888Z,100453.63
2023-04-22T05:14:31.942Z,100453.28
2023-04-22T05:17:34.465Z,100453.34
2023-04-22T05:20:37.015Z,100448.31
2023-04-22T05:23:39.542Z,100446.94
2023-04-22T05:26:42.465Z,100440.66
2023-04-22T05:29:46.351Z,100444.63
2023-04-22T05:32:48.951Z,100438.56
2023-04-22T05:35:52.406Z,100435.38
2023-04-22T05:38:54.960Z,100433.53
2023-04-22T05:41:57.468Z,100441.88
2023-04-22T05:45:01.338Z,100445.38
2023-04-22T05:48:04.045Z,100440.78
2023-04-22T05:51:06.719Z,100449.16
2023-04-22T05:54:09.211Z,100439.81
2023-04-22T05:57:12.036Z,100444.19
2023-04-22T06:00:17.621Z,100444.88
2023-04-22T06:03:20.373Z,100437.81
2023-04-22T06:06:23.134Z,100433.50
2023-04-22T06:09:25.791Z,100429.63
2023-04-22T06:12:28.344Z,100432.56
2023-04-22T06:15:32.247Z,100437.31
2023-04-22T06:18:37.959Z,100433.34
2023-04-22T06:21:42.120Z,100438.94
2023-04-22T06:24:46.359Z,100436.63
2023-04-22T06:27:50.227Z,100434.50
2023-04-22T06:30:54.112Z,100436.56
2023-04-22T06:33:56.643Z,100436.13
2023-04-22T06:36:59.225Z,100436.72
2023-04-22T06:40:01.740Z,100434.56
2023-04-22T06:43:04.344Z,100440.53
2023-04-22T06:46:08.279Z,100437.13
2023-04-22T06:49:10.800Z,100432.97
2023-04-22T06:52:13.434Z,100440.59
2023-04-22T06:55:15.942Z,100438.84
2023-04-22T06:58:18.568Z,100438.50
2023-04-22T07:01:22.498Z,100437.41
2023-04-22T07:04:25.055Z,100435.91
2023-04-22T07:07:27.755Z,100423.69
2023-04-22T07:10:30.333Z,100418.78
2023-04-22T07:13:34.219Z,100416.84
2023-04-22T07:16:38.957Z,100421.69
2023-04-22T07:19:41.787Z,100418.41
2023-04-22T07:22:44.447Z,100420.81
2023-04-22T07:25:47.019Z,100421.81
2023-04-22T07:28:49.549Z,100423.75
2023-04-22T07:31:53.555Z,100426.53
2023-04-22T07:34:56.197Z,100422.75
2023-04-22T07:37:58.775Z,100427.16
2023-04-22T07:41:03.320Z,100426.78
2023-04-22T07:44:05.836Z,100426.16
2023-04-22T07:47:10.350Z,100422.59
2023-04-22T07:50:13.093Z,100427.94
2023-04-22T07:53:17.390Z,100421.69
2023-04-22T07:56:19.886Z,100423.06
2023-04-22T07:59:22.424Z,100430.06
2023-04-22T08:02:26.389Z,100420.59
2023-04-22T08:05:29.142Z,100421.28
2023-04-22T08:08:31.669Z,100428.25
2023-04-22T08:11:34.222Z,100427.00
2023-04-22T08:14:36.706Z,100429.00
2023-04-22T08:17:40.608Z,100423.94
2023-04-22T08:20:43.125Z,100418.66
2023-04-22T08:23:45.653Z,100415.50
2023-04-22T08:26:48.249Z,100411.94
2023-04-22T08:29:50.732Z,100410.22
2023-04-22T08:32:54.591Z,100399.75
2023-04-22T08:35:57.263Z,100401.78
2023-04-22T08:38:59.964Z,100402.38
2023-04-22T08:42:02.546Z,100405.97
2023-04-22T08:45:05.998Z,100402.63
2023-04-22T08:48:11.328Z,100400.34
2023-04-22T08:51:14.986Z,100391.88
2023-04-22T08:54:17.484Z,100389.06
2023-04-22T08:57:21.193Z,100398.22
2023-04-22T09:00:23.796Z,100394.13
2023-04-22T09:03:28.571Z,100394.75
2023-04-22T09:06:33.155Z,100396.59
2023-04-22T09:09:35.874Z,100385.63
2023-04-22T09:12:39.633Z,100394.50
2023-04-22T09:15:42.241Z,100391.16
2023-04-22T09:18:46.245Z,100396.69
2023-04-22T09:21:50.798Z,100392.31
2023-04-22T09:24:54.762Z,100384.41
2023-04-22T09:27:58.573Z,100393.09
2023-04-22T09:31:01.722Z,100382.25
2023-04-22T09:34:05.981Z,100378.19
2023-04-22T09:37:08.466Z,100382.75
2023-04-22T09:40:16.020Z,100386.56
2023-04-22T09:43:20.049Z,100381.13
2023-04-22T09:46:23.545Z,100370.00
2023-04-22T09:49:28.555Z,100375.84
2023-04-22T09:52:33.964Z,100369.63
2023-04-22T09:55:40.420Z,100362.72
2023-04-22T09:58:44.231Z,100365.13
2023-04-22T10:01:46.850Z,100354.78
2023-04-22T10:04:51.295Z,100356.56
2023-04-22T10:07:53.981Z,100365.09
2023-04-22T10:10:56.824Z,100346.00
2023-04-22T10:14:00.910Z,100348.06
2023-04-22T10:17:05.098Z,100346.50
2023-04-22T10:20:14.208Z,100339.97
2023-04-22T10:23:23.358Z,100339.69
2023-04-22T10:26:43.117Z,100334.66
2023-04-22T10:29:45.652Z,100326.69
2023-04-22T10:32:48.202Z,100321.94
2023-04-22T10:36:11.243Z,100319.22
2023-04-22T10:39:18.146Z,100310.97
2023-04-22T10:42:21.882Z,100314.06
2023-04-22T10:45:26.546Z,100311.13
2023-04-22T10:48:49.982Z,100305.78
2023-04-22T10:51:55.327Z,100307.72
2023-04-22T10:55:01.596Z,100306.41
2023-04-22T10:58:04.200Z,100289.00
2023-04-22T11:01:16.047Z,100294.00
2023-04-22T11:04:23.189Z,100294.59
2023-04-22T11:07:35.686Z,100284.31
2023-04-22T11:10:44.687Z,100287.19
2023-04-22T11:13:51.804Z,100273.84
2023-04-22T11:16:55.317Z,100278.41
2023-04-22T11:19:58.654Z,100265.56
2023-04-22T11:23:04.059Z,100258.13
2023-04-22T11:26:07.482Z,100261.94
2023-04-22T11:29:10.155Z,100262.06
2023-04-22T11:32:12.719Z,100256.63
2023-04-22T11:35:18.856Z,100249.53
2023-04-22T11:38:22.770Z,100253.19
2023-04-22T11:41:25.339Z,100243.78
2023-04-22T11:44:27.834Z,100255.22
2023-04-22T11:47:30.631Z,100255.09
2023-04-22T11:50:36.264Z,100248.88
2023-04-22T11:53:41.341Z,100249.44
2023-04-22T11:56:43.937Z,100236.31
2023-04-22T11:59:58.261Z,100248.34
2023-04-22T12:03:02.842Z,100251.81
2023-04-22T12:06:06.302Z,100256.44
2023-04-22T12:09:12.019Z,100232.53
2023-04-22T12:12:16.108Z,100235.28
2023-04-22T12:15:18.954Z,100227.00
2023-04-22T12:18:29.714Z,100230.03
2023-04-22T12:21:32.787Z,100206.94
2023-04-22T12:24:36.673Z,100217.72
2023-04-22T12:27:39.211Z,100207.66
2023-04-22T12:30:41.894Z,100205.63
2023-04-22T12:33:45.325Z,100197.34
2023-04-22T12:36:48.312Z,100203.94
2023-04-22T12:39:52.228Z,100198.16
2023-04-22T12:42:54.737Z,100188.66
2023-04-22T12:45:57.404Z,100129.44
2023-04-22T12:48:59.961Z,100185.88
2023-04-22T12:52:02.618Z,100188.09
2023-04-22T12:55:07.835Z,100174.88
2023-04-22T12:58:10.488Z,100175.69
2023-04-22T13:01:13.151Z,100179.25
2023-04-22T13:04:15.988Z,100182.22
2023-04-22T13:07:18.696Z,100172.28
2023-04-22T13:10:22.930Z,100171.59
2023-04-22T13:13:25.520Z,100173.22
2023-04-22T13:16:28.100Z,100167.13
2023-04-22T13:19:31.869Z,100164.81
2023-04-22T13:22:34.606Z,100160.81
2023-04-22T13:25:38.581Z,100156.66
2023-04-22T13:28:41.242Z,100156.09
2023-04-22T13:31:44.866Z,100148.75
2023-04-22T13:34:48.384Z,100152.59
2023-04-22T13:37:50.935Z,100155.09
2023-04-22T13:40:54.781Z,100152.31
2023-04-22T13:43:59.704Z,100147.41
2023-04-22T13:47:02.824Z,100137.59
2023-04-22T13:50:06.618Z,100130.09
2023-04-22T13:53:10.182Z,100121.72
2023-04-22T13:56:14.103Z,100119.72
2023-04-22T13:59:17.083Z,100114.97
2023-04-22T14:02:19.696Z,100114.47
2023-04-22T14:05:22.333Z,100124.94
2023-04-22T14:08:25.051Z,100118.50
2023-04-22T14:11:28.993Z,100110.50
2023-04-22T14:14:31.762Z,100113.28
2023-04-22T14:17:34.297Z,100110.63
2023-04-22T14:20:36.842Z,100106.84
2023-04-22T14:23:40.765Z,100110.53
2023-04-22T14:26:44.686Z,100100.88
2023-04-22T14:29:47.275Z,100097.13
2023-04-22T14:32:50.720Z,100086.63
2023-04-22T14:35:53.727Z,100079.91
2023-04-22T14:38:56.340Z,100071.00
2023-04-22T14:42:00.727Z,100067.34
2023-04-22T14:45:03.659Z,100074.28
2023-04-22T14:48:06.544Z,100079.06
2023-04-22T14:51:09.165Z,100073.53
2023-04-22T14:54:11.681Z,100077.06
2023-04-22T14:57:15.672Z,100061.41
2023-04-22T15:00:18.518Z,100057.34
2023-04-22T15:03:21.194Z,100053.84
2023-04-22T15:06:24.369Z,100057.41
2023-04-22T15:09:27.839Z,100057.81
2023-04-22T15:12:31.727Z,100044.47
2023-04-22T15:15:34.270Z,100042.47
2023-04-22T15:18:36.784Z,100043.91
2023-04-22T15:21:40.207Z,100038.72
2023-04-22T15:24:42.801Z,100026.75
2023-04-22T15:27:46.799Z,100035.53
2023-04-22T15:30:50.162Z,100022.09
2023-04-22T15:33:52.704Z,100032.31
2023-04-22T15:36:55.292Z,100026.25
2023-04-22T15:39:57.852Z,100022.69
2023-04-22T15:43:01.789Z,100020.13
2023-04-22T15:46:04.449Z,100015.69
2023-04-22T15:49:07.037Z,100012.59
2023-04-22T15:59:42.436Z,100002.94
2023-04-22T16:02:46.600Z,100002.59
2023-04-22T16:05:52.771Z,100002.44
2023-04-22T16:08:55.690Z,99997.44
2023-04-22T16:11:59.406Z,99991.19
2023-04-22T16:15:03.269Z,99995.41
2023-04-22T16:18:06.164Z,99992.22
2023-04-22T16:21:10.309Z,99979.09
2023-04-22T16:24:14.531Z,99981.41
2023-04-22T16:27:19.226Z,99979.69
2023-04-22T16:30:23.458Z,99969.88
2023-04-22T16:33:26.442Z,99965.66
2023-04-22T16:36:29.056Z,99959.25
2023-04-22T16:39:31.624Z,99957.19
2023-04-22T16:42:34.597Z,99958.75
2023-04-22T16:45:38.433Z,99950.66
2023-04-22T16:48:43.530Z,99946.22
2023-04-22T16:51:46.044Z,99939.81
2023-04-22T16:54:48.526Z,99941.91
2023-04-22T16:57:51.100Z,99936.53
2023-04-22T17:00:55.013Z,99933.47
2023-04-22T17:03:58.025Z,99928.34
2023-04-22T17:07:00.902Z,99925.63
2023-04-22T17:10:03.720Z,99928.59
2023-04-22T17:13:06.256Z,99925.44
2023-04-22T17:16:11.056Z,99925.28
2023-04-22T17:19:13.618Z,99921.75
2023-04-22T17:22:16.179Z,99916.72
2023-04-22T17:25:18.681Z,99919.22
2023-04-22T17:28:21.160Z,99918.81
2023-04-22T17:31:25.303Z,99926.91
2023-04-22T17:34:28.088Z,99923.88
2023-04-22T17:37:30.585Z,99916.81
2023-04-22T17:40:33.153Z,99912.38
2023-04-22T17:43:35.723Z,99918.06
2023-04-22T17:46:41.222Z,99919.69
2023-04-22T17:49:43.957Z,99911.56
2023-04-22T17:52:46.724Z,99909.63
2023-04-22T17:55:49.256Z,99906.25
2023-04-22T17:58:51.747Z,99907.78
2023-04-22T18:01:55.689Z,99905.41
2023-04-22T18:04:58.343Z,99911.31
2023-04-22T18:08:02.609Z,99904.00
2023-04-22T18:11:05.917Z,99910.81
2023-04-22T18:14:08.884Z,99904.06
2023-04-22T18:17:13.514Z,99911.38
2023-04-22T18:20:18.835Z,99908.38
2023-04-22T18:23:21.599Z,99907.84
2023-04-22T18:26:24.201Z,99899.56
2023-04-22T18:29:27.018Z,99905.81
2023-04-22T18:32:30.979Z,99905.91
2023-04-22T18:35:35.304Z,99904.91
2023-04-22T18:38:38.663Z,99908.09
2023-04-22T18:41:42.802Z,99916.72
2023-04-22T18:44:45.432Z,99912.34
2023-04-22T18:47:49.363Z,99918.38
2023-04-22T18:50:52.127Z,99910.56
2023-04-22T18:53:54.808Z,99915.44
2023-04-22T18:56:58.243Z,99924.97
2023-04-22T19:00:00.896Z,99911.63
2023-04-22T19:03:05.098Z,99916.09
2023-04-22T19:06:07.860Z,99911.75
2023-04-22T19:09:10.512Z,99905.09
2023-04-22T19:12:16.504Z,99913.53
2023-04-22T19:15:20.005Z,99906.53
2023-04-22T19:18:23.992Z,99910.38
2023-04-22T19:21:27.079Z,99912.38
2023-04-22T19:24:33.441Z,99905.72
2023-04-22T19:27:36.042Z,99906.59
2023-04-22T19:30:38.571Z,99913.28
2023-04-22T19:33:42.508Z,99911.44
2023-04-22T19:36:44.998Z,99909.78
2023-04-22T19:39:47.596Z,99908.00
2023-04-22T19:42:50.196Z,99903.41
2023-04-22T19:45:53.507Z,99897.72
2023-04-22T19:48:57.968Z,99900.25
2023-04-22T19:52:02.832Z,99902.69
2023-04-22T19:55:09.003Z,99898.84
2023-04-22T19:58:11.803Z,99888.78
2023-04-22T20:01:14.680Z,99885.41
2023-04-22T20:04:19.146Z,99893.84
2023-04-22T20:07:22.147Z,99887.00
2023-04-22T20:10:26.392Z,99880.47
2023-04-22T20:13:28.960Z,99878.38
2023-04-22T20:16:32.154Z,99868.38
2023-04-22T20:19:36.649Z,99873.06
2023-04-22T20:22:41.365Z,99870.41
2023-04-22T20:25:45.515Z,99863.06
2023-04-22T20:28:51.792Z,99861.47
2023-04-22T20:31:55.717Z,99860.00
2023-04-22T20:35:00.661Z,99857.97
2023-04-22T20:38:04.196Z,99861.59
2023-04-22T20:41:07.541Z,99862.78
2023-04-22T20:44:10.587Z,99857.25
2023-04-22T20:47:13.940Z,99857.34
2023-04-22T20:50:17.827Z,99856.41
2023-04-22T20:53:20.481Z,99845.41
2023-04-22T20:56:23.089Z,99845.28
2023-04-22T20:59:25.733Z,99839.34
2023-04-22T21:02:30.255Z,99844.31
2023-04-22T21:05:40.779Z,99845.63
2023-04-22T21:08:43.805Z,99830.41
2023-04-22T21:11:46.801Z,99836.22
